sensor_id;sensor_type;location;lat;lon;timestamp;P1;durP1;ratioP1;P2;durP2;ratioP2
6564;SDS011;3316;44.118;27.258;2022-11-20T00:02:19;31.13;;;19.10;;
6564;SDS011;3316;44.118;27.258;2022-11-20T00:04:45;34.40;;;18.30;;
6564;SDS011;3316;44.118;27.258;2022-11-20T00:07:10;25.73;;;14.97;;
6564;SDS011;3316;44.118;27.258;2022-11-20T00:09:35;23.63;;;15.47;;
6564;SDS011;3316;44.118;27.258;2022-11-20T00:12:01;25.07;;;14.73;;
6564;SDS011;3316;44.118;27.258;2022-11-20T00:14:26;22.70;;;12.57;;
6564;SDS011;3316;44.118;27.258;2022-11-20T00:16:52;24.27;;;12.53;;
6564;SDS011;3316;44.118;27.258;2022-11-20T00:19:17;30.90;;;13.83;;
6564;SDS011;3316;44.118;27.258;2022-11-20T00:21:42;23.03;;;12.43;;
6564;SDS011;3316;44.118;27.258;2022-11-20T00:24:08;31.77;;;16.03;;
6564;SDS011;3316;44.118;27.258;2022-11-20T00:26:35;32.90;;;18.83;;
6564;SDS011;3316;44.118;27.258;2022-11-20T00:29:01;28.13;;;15.27;;
6564;SDS011;3316;44.118;27.258;2022-11-20T00:31:27;20.07;;;10.63;;
6564;SDS011;3316;44.118;27.258;2022-11-20T00:33:53;21.63;;;9.73;;
6564;SDS011;3316;44.118;27.258;2022-11-20T00:36:23;21.00;;;8.57;;
6564;SDS011;3316;44.118;27.258;2022-11-20T00:38:51;19.60;;;10.30;;
6564;SDS011;3316;44.118;27.258;2022-11-20T00:41:21;21.00;;;10.27;;
6564;SDS011;3316;44.118;27.258;2022-11-20T00:43:47;21.53;;;11.63;;
6564;SDS011;3316;44.118;27.258;2022-11-20T00:46:14;20.53;;;11.47;;
6564;SDS011;3316;44.118;27.258;2022-11-20T00:48:41;20.33;;;11.00;;
6564;SDS011;3316;44.118;27.258;2022-11-20T00:51:08;20.60;;;10.87;;
6564;SDS011;3316;44.118;27.258;2022-11-20T00:53:33;21.77;;;11.90;;
6564;SDS011;3316;44.118;27.258;2022-11-20T00:56:00;23.83;;;9.90;;
6564;SDS011;3316;44.118;27.258;2022-11-20T00:58:29;32.27;;;12.13;;
6564;SDS011;3316;44.118;27.258;2022-11-20T01:01:01;20.03;;;10.10;;
6564;SDS011;3316;44.118;27.258;2022-11-20T01:03:27;22.40;;;10.23;;
6564;SDS011;3316;44.118;27.258;2022-11-20T01:05:52;20.33;;;10.13;;
6564;SDS011;3316;44.118;27.258;2022-11-20T01:08:18;22.10;;;9.83;;
6564;SDS011;3316;44.118;27.258;2022-11-20T01:10:43;22.47;;;10.20;;
6564;SDS011;3316;44.118;27.258;2022-11-20T01:13:09;20.83;;;10.43;;
6564;SDS011;3316;44.118;27.258;2022-11-20T01:18:41;21.20;;;8.90;;
6564;SDS011;3316;44.118;27.258;2022-11-20T01:21:13;24.30;;;10.00;;
6564;SDS011;3316;44.118;27.258;2022-11-20T01:23:41;19.63;;;9.70;;
6564;SDS011;3316;44.118;27.258;2022-11-20T01:26:08;20.83;;;11.20;;
6564;SDS011;3316;44.118;27.258;2022-11-20T01:28:38;29.57;;;15.37;;
6564;SDS011;3316;44.118;27.258;2022-11-20T01:31:15;50.67;;;28.73;;
6564;SDS011;3316;44.118;27.258;2022-11-20T01:33:45;20.47;;;10.77;;
6564;SDS011;3316;44.118;27.258;2022-11-20T01:36:13;26.00;;;10.30;;
6564;SDS011;3316;44.118;27.258;2022-11-20T01:38:39;20.87;;;11.50;;
6564;SDS011;3316;44.118;27.258;2022-11-20T01:41:05;36.77;;;22.90;;
6564;SDS011;3316;44.118;27.258;2022-11-20T01:43:32;45.70;;;30.53;;
6564;SDS011;3316;44.118;27.258;2022-11-20T01:53:50;49.00;;;31.30;;
6564;SDS011;3316;44.118;27.258;2022-11-20T01:56:19;49.33;;;30.10;;
6564;SDS011;3316;44.118;27.258;2022-11-20T01:58:48;47.40;;;30.27;;
6564;SDS011;3316;44.118;27.258;2022-11-20T02:01:18;30.13;;;14.07;;
6564;SDS011;3316;44.118;27.258;2022-11-20T02:03:44;18.30;;;9.73;;
6564;SDS011;3316;44.118;27.258;2022-11-20T02:06:19;19.00;;;9.60;;
6564;SDS011;3316;44.118;27.258;2022-11-20T02:08:49;36.53;;;19.03;;
6564;SDS011;3316;44.118;27.258;2022-11-20T02:11:16;41.90;;;22.63;;
6564;SDS011;3316;44.118;27.258;2022-11-20T02:13:41;31.07;;;14.40;;
6564;SDS011;3316;44.118;27.258;2022-11-20T02:16:21;37.67;;;21.63;;
6564;SDS011;3316;44.118;27.258;2022-11-20T02:18:55;30.57;;;12.63;;
6564;SDS011;3316;44.118;27.258;2022-11-20T02:24:19;23.53;;;14.33;;
6564;SDS011;3316;44.118;27.258;2022-11-20T02:29:23;32.20;;;11.87;;
6564;SDS011;3316;44.118;27.258;2022-11-20T02:31:57;28.63;;;11.60;;
6564;SDS011;3316;44.118;27.258;2022-11-20T02:34:26;20.43;;;10.83;;
6564;SDS011;3316;44.118;27.258;2022-11-20T02:36:51;24.50;;;11.30;;
6564;SDS011;3316;44.118;27.258;2022-11-20T02:39:17;38.23;;;16.57;;
6564;SDS011;3316;44.118;27.258;2022-11-20T02:41:45;31.77;;;16.00;;
6564;SDS011;3316;44.118;27.258;2022-11-20T02:44:11;32.63;;;18.20;;
6564;SDS011;3316;44.118;27.258;2022-11-20T02:46:37;30.23;;;14.10;;
6564;SDS011;3316;44.118;27.258;2022-11-20T02:49:02;33.60;;;14.80;;
6564;SDS011;3316;44.118;27.258;2022-11-20T02:51:29;35.67;;;17.90;;
6564;SDS011;3316;44.118;27.258;2022-11-20T02:53:55;27.03;;;17.23;;
6564;SDS011;3316;44.118;27.258;2022-11-20T02:56:20;34.80;;;16.70;;
6564;SDS011;3316;44.118;27.258;2022-11-20T02:58:46;31.30;;;15.53;;
6564;SDS011;3316;44.118;27.258;2022-11-20T03:01:11;32.87;;;13.70;;
6564;SDS011;3316;44.118;27.258;2022-11-20T03:03:37;26.97;;;13.17;;
6564;SDS011;3316;44.118;27.258;2022-11-20T03:06:02;27.90;;;14.00;;
6564;SDS011;3316;44.118;27.258;2022-11-20T03:08:28;30.80;;;13.30;;
6564;SDS011;3316;44.118;27.258;2022-11-20T03:10:53;24.97;;;12.83;;
6564;SDS011;3316;44.118;27.258;2022-11-20T03:13:19;30.13;;;14.57;;
6564;SDS011;3316;44.118;27.258;2022-11-20T03:15:44;22.53;;;13.57;;
6564;SDS011;3316;44.118;27.258;2022-11-20T03:18:10;23.50;;;13.67;;
6564;SDS011;3316;44.118;27.258;2022-11-20T03:20:35;20.07;;;11.73;;
6564;SDS011;3316;44.118;27.258;2022-11-20T03:23:01;27.53;;;12.63;;
6564;SDS011;3316;44.118;27.258;2022-11-20T03:25:27;26.27;;;12.67;;
6564;SDS011;3316;44.118;27.258;2022-11-20T03:27:53;34.20;;;14.33;;
6564;SDS011;3316;44.118;27.258;2022-11-20T03:30:19;22.53;;;13.23;;
6564;SDS011;3316;44.118;27.258;2022-11-20T03:32:44;34.40;;;14.60;;
6564;SDS011;3316;44.118;27.258;2022-11-20T03:35:10;26.83;;;14.37;;
6564;SDS011;3316;44.118;27.258;2022-11-20T03:37:36;27.73;;;15.20;;
6564;SDS011;3316;44.118;27.258;2022-11-20T03:40:01;26.47;;;15.17;;
6564;SDS011;3316;44.118;27.258;2022-11-20T03:42:27;25.97;;;15.93;;
6564;SDS011;3316;44.118;27.258;2022-11-20T03:45:11;30.37;;;15.13;;
6564;SDS011;3316;44.118;27.258;2022-11-20T03:47:40;26.57;;;16.27;;
6564;SDS011;3316;44.118;27.258;2022-11-20T03:50:06;31.93;;;17.53;;
6564;SDS011;3316;44.118;27.258;2022-11-20T03:52:32;32.53;;;16.97;;
6564;SDS011;3316;44.118;27.258;2022-11-20T03:54:57;35.20;;;18.90;;
6564;SDS011;3316;44.118;27.258;2022-11-20T03:57:22;29.03;;;18.43;;
6564;SDS011;3316;44.118;27.258;2022-11-20T03:59:48;32.13;;;17.63;;
6564;SDS011;3316;44.118;27.258;2022-11-20T04:02:13;37.17;;;19.43;;
6564;SDS011;3316;44.118;27.258;2022-11-20T04:04:39;36.67;;;17.97;;
6564;SDS011;3316;44.118;27.258;2022-11-20T04:07:04;32.60;;;18.63;;
6564;SDS011;3316;44.118;27.258;2022-11-20T04:09:29;37.20;;;19.13;;
6564;SDS011;3316;44.118;27.258;2022-11-20T04:11:55;38.53;;;20.63;;
6564;SDS011;3316;44.118;27.258;2022-11-20T04:14:20;39.47;;;20.20;;
6564;SDS011;3316;44.118;27.258;2022-11-20T04:16:46;32.87;;;19.37;;
6564;SDS011;3316;44.118;27.258;2022-11-20T04:19:12;38.47;;;19.97;;
6564;SDS011;3316;44.118;27.258;2022-11-20T04:21:40;32.07;;;20.07;;
6564;SDS011;3316;44.118;27.258;2022-11-20T04:24:06;34.80;;;18.40;;
6564;SDS011;3316;44.118;27.258;2022-11-20T04:26:32;41.23;;;20.00;;
6564;SDS011;3316;44.118;27.258;2022-11-20T04:28:58;37.70;;;20.47;;
6564;SDS011;3316;44.118;27.258;2022-11-20T04:31:25;37.93;;;20.50;;
6564;SDS011;3316;44.118;27.258;2022-11-20T04:33:52;47.60;;;22.73;;
6564;SDS011;3316;44.118;27.258;2022-11-20T04:36:18;52.50;;;23.93;;
6564;SDS011;3316;44.118;27.258;2022-11-20T04:38:52;47.13;;;21.50;;
6564;SDS011;3316;44.118;27.258;2022-11-20T04:41:19;49.90;;;22.43;;
6564;SDS011;3316;44.118;27.258;2022-11-20T04:43:46;50.50;;;20.37;;
6564;SDS011;3316;44.118;27.258;2022-11-20T04:46:13;46.70;;;22.33;;
6564;SDS011;3316;44.118;27.258;2022-11-20T04:48:39;44.33;;;21.80;;
6564;SDS011;3316;44.118;27.258;2022-11-20T04:51:05;49.90;;;22.73;;
6564;SDS011;3316;44.118;27.258;2022-11-20T04:53:30;47.53;;;21.27;;
6564;SDS011;3316;44.118;27.258;2022-11-20T04:56:00;55.57;;;21.57;;
6564;SDS011;3316;44.118;27.258;2022-11-20T04:58:26;45.03;;;22.20;;
6564;SDS011;3316;44.118;27.258;2022-11-20T05:00:52;45.20;;;20.70;;
6564;SDS011;3316;44.118;27.258;2022-11-20T05:03:17;45.63;;;21.10;;
6564;SDS011;3316;44.118;27.258;2022-11-20T05:05:43;44.47;;;21.37;;
6564;SDS011;3316;44.118;27.258;2022-11-20T05:08:08;48.13;;;22.53;;
6564;SDS011;3316;44.118;27.258;2022-11-20T05:10:33;46.43;;;22.57;;
6564;SDS011;3316;44.118;27.258;2022-11-20T05:12:59;41.53;;;22.20;;
6564;SDS011;3316;44.118;27.258;2022-11-20T05:15:24;45.80;;;24.27;;
6564;SDS011;3316;44.118;27.258;2022-11-20T05:17:50;48.40;;;25.90;;
6564;SDS011;3316;44.118;27.258;2022-11-20T05:20:17;46.47;;;25.70;;
6564;SDS011;3316;44.118;27.258;2022-11-20T05:22:43;58.33;;;26.50;;
6564;SDS011;3316;44.118;27.258;2022-11-20T05:25:09;52.27;;;25.97;;
6564;SDS011;3316;44.118;27.258;2022-11-20T05:27:35;51.43;;;27.03;;
6564;SDS011;3316;44.118;27.258;2022-11-20T05:30:00;47.83;;;26.13;;
6564;SDS011;3316;44.118;27.258;2022-11-20T05:32:26;53.67;;;25.87;;
6564;SDS011;3316;44.118;27.258;2022-11-20T05:34:52;65.50;;;27.80;;
6564;SDS011;3316;44.118;27.258;2022-11-20T05:37:17;50.77;;;26.13;;
6564;SDS011;3316;44.118;27.258;2022-11-20T05:39:43;50.57;;;26.37;;
6564;SDS011;3316;44.118;27.258;2022-11-20T05:42:08;49.37;;;25.73;;
6564;SDS011;3316;44.118;27.258;2022-11-20T05:45:06;56.03;;;27.77;;
6564;SDS011;3316;44.118;27.258;2022-11-20T05:47:32;47.70;;;24.33;;
6564;SDS011;3316;44.118;27.258;2022-11-20T05:49:59;53.63;;;25.07;;
6564;SDS011;3316;44.118;27.258;2022-11-20T05:52:27;50.63;;;24.90;;
6564;SDS011;3316;44.118;27.258;2022-11-20T05:54:53;43.90;;;23.13;;
6564;SDS011;3316;44.118;27.258;2022-11-20T05:57:19;50.43;;;23.37;;
6564;SDS011;3316;44.118;27.258;2022-11-20T05:59:44;45.10;;;23.60;;
6564;SDS011;3316;44.118;27.258;2022-11-20T06:02:09;43.43;;;22.33;;
6564;SDS011;3316;44.118;27.258;2022-11-20T06:04:35;53.90;;;24.17;;
6564;SDS011;3316;44.118;27.258;2022-11-20T06:07:00;50.73;;;24.80;;
6564;SDS011;3316;44.118;27.258;2022-11-20T06:09:26;43.80;;;24.87;;
6564;SDS011;3316;44.118;27.258;2022-11-20T06:11:51;43.90;;;24.17;;
6564;SDS011;3316;44.118;27.258;2022-11-20T06:14:17;47.60;;;23.77;;
6564;SDS011;3316;44.118;27.258;2022-11-20T06:16:42;49.23;;;24.67;;
6564;SDS011;3316;44.118;27.258;2022-11-20T06:19:07;52.80;;;24.90;;
6564;SDS011;3316;44.118;27.258;2022-11-20T06:21:33;49.60;;;24.63;;
6564;SDS011;3316;44.118;27.258;2022-11-20T06:23:58;49.27;;;24.77;;
6564;SDS011;3316;44.118;27.258;2022-11-20T06:26:25;53.57;;;27.00;;
6564;SDS011;3316;44.118;27.258;2022-11-20T06:28:52;58.93;;;24.30;;
6564;SDS011;3316;44.118;27.258;2022-11-20T06:31:19;54.87;;;24.33;;
6564;SDS011;3316;44.118;27.258;2022-11-20T06:33:46;60.07;;;26.90;;
6564;SDS011;3316;44.118;27.258;2022-11-20T06:36:13;61.80;;;28.50;;
6564;SDS011;3316;44.118;27.258;2022-11-20T06:38:40;62.13;;;28.50;;
6564;SDS011;3316;44.118;27.258;2022-11-20T06:41:07;56.73;;;27.53;;
6564;SDS011;3316;44.118;27.258;2022-11-20T06:43:35;57.33;;;28.50;;
6564;SDS011;3316;44.118;27.258;2022-11-20T06:46:00;55.37;;;27.40;;
6564;SDS011;3316;44.118;27.258;2022-11-20T06:48:26;74.17;;;29.00;;
6564;SDS011;3316;44.118;27.258;2022-11-20T06:50:53;70.77;;;31.63;;
6564;SDS011;3316;44.118;27.258;2022-11-20T06:53:18;76.23;;;30.07;;
6564;SDS011;3316;44.118;27.258;2022-11-20T06:55:44;63.63;;;30.50;;
6564;SDS011;3316;44.118;27.258;2022-11-20T06:58:11;70.70;;;30.67;;
6564;SDS011;3316;44.118;27.258;2022-11-20T07:00:37;70.97;;;28.17;;
6564;SDS011;3316;44.118;27.258;2022-11-20T07:03:06;63.50;;;27.57;;
6564;SDS011;3316;44.118;27.258;2022-11-20T07:05:33;60.10;;;28.17;;
6564;SDS011;3316;44.118;27.258;2022-11-20T07:08:00;69.13;;;28.93;;
6564;SDS011;3316;44.118;27.258;2022-11-20T07:10:25;51.77;;;23.43;;
6564;SDS011;3316;44.118;27.258;2022-11-20T07:12:51;45.23;;;21.33;;
6564;SDS011;3316;44.118;27.258;2022-11-20T07:15:18;49.57;;;23.07;;
6564;SDS011;3316;44.118;27.258;2022-11-20T07:17:45;42.30;;;22.40;;
6564;SDS011;3316;44.118;27.258;2022-11-20T07:20:10;41.00;;;21.93;;
6564;SDS011;3316;44.118;27.258;2022-11-20T07:22:36;44.10;;;21.90;;
6564;SDS011;3316;44.118;27.258;2022-11-20T07:25:02;40.87;;;20.53;;
6564;SDS011;3316;44.118;27.258;2022-11-20T07:27:28;35.53;;;19.43;;
6564;SDS011;3316;44.118;27.258;2022-11-20T07:29:54;42.00;;;20.67;;
6564;SDS011;3316;44.118;27.258;2022-11-20T07:32:19;36.60;;;19.90;;
6564;SDS011;3316;44.118;27.258;2022-11-20T07:34:45;42.20;;;20.87;;
6564;SDS011;3316;44.118;27.258;2022-11-20T07:37:11;39.47;;;19.47;;
6564;SDS011;3316;44.118;27.258;2022-11-20T07:39:36;36.43;;;20.20;;
6564;SDS011;3316;44.118;27.258;2022-11-20T07:42:02;33.10;;;18.70;;
6564;SDS011;3316;44.118;27.258;2022-11-20T07:44:27;40.37;;;21.30;;
6564;SDS011;3316;44.118;27.258;2022-11-20T07:46:53;40.63;;;20.10;;
6564;SDS011;3316;44.118;27.258;2022-11-20T07:49:18;36.80;;;18.77;;
6564;SDS011;3316;44.118;27.258;2022-11-20T07:51:43;41.87;;;21.07;;
6564;SDS011;3316;44.118;27.258;2022-11-20T07:54:09;38.07;;;19.20;;
6564;SDS011;3316;44.118;27.258;2022-11-20T07:56:34;43.77;;;19.63;;
6564;SDS011;3316;44.118;27.258;2022-11-20T07:59:00;35.23;;;19.97;;
6564;SDS011;3316;44.118;27.258;2022-11-20T08:01:25;35.07;;;17.77;;
6564;SDS011;3316;44.118;27.258;2022-11-20T08:03:50;30.40;;;16.90;;
6564;SDS011;3316;44.118;27.258;2022-11-20T08:06:16;40.90;;;19.07;;
6564;SDS011;3316;44.118;27.258;2022-11-20T08:08:43;34.17;;;18.03;;
6564;SDS011;3316;44.118;27.258;2022-11-20T08:11:09;38.07;;;17.70;;
6564;SDS011;3316;44.118;27.258;2022-11-20T08:13:53;35.93;;;17.50;;
6564;SDS011;3316;44.118;27.258;2022-11-20T08:16:36;36.67;;;20.20;;
6564;SDS011;3316;44.118;27.258;2022-11-20T08:19:02;33.00;;;16.60;;
6564;SDS011;3316;44.118;27.258;2022-11-20T08:21:27;33.80;;;18.30;;
6564;SDS011;3316;44.118;27.258;2022-11-20T08:23:53;31.80;;;16.33;;
6564;SDS011;3316;44.118;27.258;2022-11-20T08:26:18;29.73;;;16.13;;
6564;SDS011;3316;44.118;27.258;2022-11-20T08:28:45;28.67;;;15.17;;
6564;SDS011;3316;44.118;27.258;2022-11-20T08:31:11;30.83;;;15.67;;
6564;SDS011;3316;44.118;27.258;2022-11-20T08:33:37;38.93;;;19.03;;
6564;SDS011;3316;44.118;27.258;2022-11-20T08:36:02;39.37;;;19.63;;
6564;SDS011;3316;44.118;27.258;2022-11-20T08:38:29;28.53;;;14.03;;
6564;SDS011;3316;44.118;27.258;2022-11-20T08:41:01;27.27;;;14.67;;
6564;SDS011;3316;44.118;27.258;2022-11-20T08:43:46;25.87;;;14.33;;
6564;SDS011;3316;44.118;27.258;2022-11-20T08:46:12;28.93;;;13.30;;
6564;SDS011;3316;44.118;27.258;2022-11-20T08:48:38;29.00;;;12.87;;
6564;SDS011;3316;44.118;27.258;2022-11-20T08:51:03;37.70;;;17.50;;
6564;SDS011;3316;44.118;27.258;2022-11-20T08:53:29;34.23;;;17.73;;
6564;SDS011;3316;44.118;27.258;2022-11-20T08:55:56;24.00;;;13.13;;
6564;SDS011;3316;44.118;27.258;2022-11-20T08:58:21;27.20;;;14.20;;
6564;SDS011;3316;44.118;27.258;2022-11-20T09:00:47;24.27;;;12.00;;
6564;SDS011;3316;44.118;27.258;2022-11-20T09:03:12;23.47;;;12.53;;
6564;SDS011;3316;44.118;27.258;2022-11-20T09:05:38;22.73;;;12.27;;
6564;SDS011;3316;44.118;27.258;2022-11-20T09:08:04;27.30;;;14.10;;
6564;SDS011;3316;44.118;27.258;2022-11-20T09:10:29;27.20;;;13.70;;
6564;SDS011;3316;44.118;27.258;2022-11-20T09:12:55;25.00;;;12.50;;
6564;SDS011;3316;44.118;27.258;2022-11-20T09:15:21;27.70;;;12.27;;
6564;SDS011;3316;44.118;27.258;2022-11-20T09:17:58;25.30;;;13.17;;
6564;SDS011;3316;44.118;27.258;2022-11-20T09:20:25;24.43;;;13.30;;
6564;SDS011;3316;44.118;27.258;2022-11-20T09:22:52;28.73;;;12.97;;
6564;SDS011;3316;44.118;27.258;2022-11-20T09:25:17;23.67;;;11.97;;
6564;SDS011;3316;44.118;27.258;2022-11-20T09:27:43;27.00;;;11.90;;
6564;SDS011;3316;44.118;27.258;2022-11-20T09:30:10;20.10;;;11.33;;
6564;SDS011;3316;44.118;27.258;2022-11-20T09:32:38;28.13;;;12.00;;
6564;SDS011;3316;44.118;27.258;2022-11-20T09:35:04;21.90;;;10.80;;
6564;SDS011;3316;44.118;27.258;2022-11-20T09:37:30;29.47;;;15.07;;
6564;SDS011;3316;44.118;27.258;2022-11-20T09:39:55;27.33;;;13.17;;
6564;SDS011;3316;44.118;27.258;2022-11-20T09:42:36;28.43;;;13.87;;
6564;SDS011;3316;44.118;27.258;2022-11-20T09:45:21;38.70;;;14.20;;
6564;SDS011;3316;44.118;27.258;2022-11-20T09:53:19;35.60;;;18.27;;
6564;SDS011;3316;44.118;27.258;2022-11-20T09:56:06;35.67;;;17.37;;
6564;SDS011;3316;44.118;27.258;2022-11-20T09:58:40;39.20;;;17.73;;
6564;SDS011;3316;44.118;27.258;2022-11-20T10:01:18;48.97;;;22.00;;
6564;SDS011;3316;44.118;27.258;2022-11-20T10:04:04;35.10;;;18.00;;
6564;SDS011;3316;44.118;27.258;2022-11-20T10:09:27;39.47;;;19.10;;
6564;SDS011;3316;44.118;27.258;2022-11-20T10:25:38;24.43;;;11.87;;
6564;SDS011;3316;44.118;27.258;2022-11-20T10:30:57;23.27;;;14.97;;
6564;SDS011;3316;44.118;27.258;2022-11-20T10:33:26;27.53;;;15.60;;
6564;SDS011;3316;44.118;27.258;2022-11-20T10:38:38;30.57;;;18.27;;
6564;SDS011;3316;44.118;27.258;2022-11-20T10:41:08;39.37;;;19.57;;
6564;SDS011;3316;44.118;27.258;2022-11-20T10:44:14;29.73;;;15.23;;
6564;SDS011;3316;44.118;27.258;2022-11-20T10:47:11;30.47;;;17.53;;
6564;SDS011;3316;44.118;27.258;2022-11-20T10:49:39;28.60;;;14.33;;
6564;SDS011;3316;44.118;27.258;2022-11-20T11:00:11;17.40;;;11.63;;
6564;SDS011;3316;44.118;27.258;2022-11-20T11:08:12;27.43;;;15.10;;
6564;SDS011;3316;44.118;27.258;2022-11-20T11:11:02;24.50;;;14.13;;
6564;SDS011;3316;44.118;27.258;2022-11-20T11:13:43;37.03;;;18.83;;
6564;SDS011;3316;44.118;27.258;2022-11-20T11:16:17;23.83;;;13.53;;
6564;SDS011;3316;44.118;27.258;2022-11-20T11:18:46;17.90;;;11.20;;
6564;SDS011;3316;44.118;27.258;2022-11-20T11:21:11;22.93;;;13.67;;
6564;SDS011;3316;44.118;27.258;2022-11-20T11:23:41;31.03;;;16.70;;
6564;SDS011;3316;44.118;27.258;2022-11-20T11:26:20;90.43;;;35.40;;
6564;SDS011;3316;44.118;27.258;2022-11-20T11:28:57;40.63;;;18.93;;
6564;SDS011;3316;44.118;27.258;2022-11-20T11:31:27;20.80;;;12.93;;
6564;SDS011;3316;44.118;27.258;2022-11-20T11:34:07;130.10;;;53.43;;
6564;SDS011;3316;44.118;27.258;2022-11-20T11:36:37;36.60;;;18.57;;
6564;SDS011;3316;44.118;27.258;2022-11-20T11:39:03;22.80;;;12.97;;
6564;SDS011;3316;44.118;27.258;2022-11-20T11:41:32;35.67;;;17.33;;
6564;SDS011;3316;44.118;27.258;2022-11-20T11:44:20;42.70;;;21.00;;
6564;SDS011;3316;44.118;27.258;2022-11-20T11:50:14;81.73;;;37.83;;
6564;SDS011;3316;44.118;27.258;2022-11-20T11:55:12;34.33;;;18.97;;
6564;SDS011;3316;44.118;27.258;2022-11-20T12:00:31;26.30;;;14.73;;
6564;SDS011;3316;44.118;27.258;2022-11-20T12:03:13;30.97;;;16.57;;
6564;SDS011;3316;44.118;27.258;2022-11-20T12:05:46;36.60;;;17.20;;
6564;SDS011;3316;44.118;27.258;2022-11-20T12:11:20;48.37;;;22.33;;
6564;SDS011;3316;44.118;27.258;2022-11-20T12:14:04;23.27;;;13.40;;
6564;SDS011;3316;44.118;27.258;2022-11-20T12:16:39;25.87;;;13.57;;
6564;SDS011;3316;44.118;27.258;2022-11-20T12:19:10;26.00;;;13.00;;
6564;SDS011;3316;44.118;27.258;2022-11-20T12:24:44;26.23;;;13.87;;
6564;SDS011;3316;44.118;27.258;2022-11-20T12:47:14;30.30;;;16.60;;
6564;SDS011;3316;44.118;27.258;2022-11-20T12:50:50;28.57;;;15.30;;
6564;SDS011;3316;44.118;27.258;2022-11-20T12:54:01;32.80;;;17.83;;
6564;SDS011;3316;44.118;27.258;2022-11-20T13:02:00;30.53;;;15.60;;
6564;SDS011;3316;44.118;27.258;2022-11-20T13:07:22;29.80;;;16.53;;
6564;SDS011;3316;44.118;27.258;2022-11-20T13:09:51;33.73;;;16.37;;
6564;SDS011;3316;44.118;27.258;2022-11-20T13:15:11;40.23;;;18.23;;
6564;SDS011;3316;44.118;27.258;2022-11-20T13:17:54;40.67;;;17.83;;
6564;SDS011;3316;44.118;27.258;2022-11-20T13:20:23;41.07;;;17.27;;
6564;SDS011;3316;44.118;27.258;2022-11-20T13:22:52;45.03;;;18.80;;
6564;SDS011;3316;44.118;27.258;2022-11-20T13:25:31;39.03;;;18.77;;
6564;SDS011;3316;44.118;27.258;2022-11-20T13:28:00;43.53;;;19.10;;
6564;SDS011;3316;44.118;27.258;2022-11-20T13:30:28;40.70;;;18.67;;
6564;SDS011;3316;44.118;27.258;2022-11-20T13:40:38;40.57;;;19.30;;
6564;SDS011;3316;44.118;27.258;2022-11-20T13:43:23;41.93;;;19.20;;
6564;SDS011;3316;44.118;27.258;2022-11-20T13:46:07;38.93;;;19.37;;
6564;SDS011;3316;44.118;27.258;2022-11-20T13:48:38;33.43;;;16.27;;
6564;SDS011;3316;44.118;27.258;2022-11-20T13:53:56;33.47;;;15.43;;
6564;SDS011;3316;44.118;27.258;2022-11-20T13:57:01;31.47;;;15.27;;
6564;SDS011;3316;44.118;27.258;2022-11-20T14:02:32;36.17;;;17.67;;
6564;SDS011;3316;44.118;27.258;2022-11-20T14:04:58;32.27;;;16.10;;
6564;SDS011;3316;44.118;27.258;2022-11-20T14:07:35;37.90;;;18.53;;
6564;SDS011;3316;44.118;27.258;2022-11-20T14:10:05;41.50;;;20.10;;
6564;SDS011;3316;44.118;27.258;2022-11-20T14:12:31;41.83;;;20.90;;
6564;SDS011;3316;44.118;27.258;2022-11-20T14:14:58;42.53;;;18.33;;
6564;SDS011;3316;44.118;27.258;2022-11-20T14:17:34;36.37;;;17.03;;
6564;SDS011;3316;44.118;27.258;2022-11-20T14:20:05;45.70;;;20.60;;
6564;SDS011;3316;44.118;27.258;2022-11-20T14:22:39;35.57;;;16.50;;
6564;SDS011;3316;44.118;27.258;2022-11-20T14:27:42;43.13;;;18.13;;
6564;SDS011;3316;44.118;27.258;2022-11-20T14:30:12;46.90;;;21.73;;
6564;SDS011;3316;44.118;27.258;2022-11-20T14:32:42;39.00;;;16.27;;
6564;SDS011;3316;44.118;27.258;2022-11-20T14:35:10;34.10;;;17.07;;
6564;SDS011;3316;44.118;27.258;2022-11-20T14:37:43;38.53;;;15.83;;
6564;SDS011;3316;44.118;27.258;2022-11-20T14:43:27;36.03;;;16.17;;
6564;SDS011;3316;44.118;27.258;2022-11-20T14:45:57;34.43;;;17.17;;
6564;SDS011;3316;44.118;27.258;2022-11-20T14:51:34;43.13;;;20.97;;
6564;SDS011;3316;44.118;27.258;2022-11-20T14:54:17;44.07;;;18.77;;
6564;SDS011;3316;44.118;27.258;2022-11-20T14:56:57;39.40;;;18.00;;
6564;SDS011;3316;44.118;27.258;2022-11-20T14:59:25;49.40;;;20.17;;
6564;SDS011;3316;44.118;27.258;2022-11-20T15:02:03;41.33;;;19.13;;
6564;SDS011;3316;44.118;27.258;2022-11-20T15:04:31;42.20;;;19.07;;
6564;SDS011;3316;44.118;27.258;2022-11-20T15:06:57;44.17;;;23.03;;
6564;SDS011;3316;44.118;27.258;2022-11-20T15:09:24;45.03;;;22.10;;
6564;SDS011;3316;44.118;27.258;2022-11-20T15:11:54;46.87;;;21.40;;
6564;SDS011;3316;44.118;27.258;2022-11-20T15:14:22;44.37;;;20.30;;
6564;SDS011;3316;44.118;27.258;2022-11-20T15:16:48;33.53;;;17.77;;
6564;SDS011;3316;44.118;27.258;2022-11-20T15:19:18;30.77;;;16.53;;
6564;SDS011;3316;44.118;27.258;2022-11-20T15:21:45;38.60;;;20.47;;
6564;SDS011;3316;44.118;27.258;2022-11-20T15:24:11;37.80;;;19.77;;
6564;SDS011;3316;44.118;27.258;2022-11-20T15:26:36;29.80;;;15.50;;
6564;SDS011;3316;44.118;27.258;2022-11-20T15:29:05;31.30;;;16.27;;
6564;SDS011;3316;44.118;27.258;2022-11-20T15:31:33;43.67;;;20.53;;
6564;SDS011;3316;44.118;27.258;2022-11-20T15:33:59;42.10;;;18.17;;
6564;SDS011;3316;44.118;27.258;2022-11-20T15:36:25;32.77;;;16.70;;
6564;SDS011;3316;44.118;27.258;2022-11-20T15:38:50;37.07;;;17.13;;
6564;SDS011;3316;44.118;27.258;2022-11-20T15:41:16;37.57;;;19.10;;
6564;SDS011;3316;44.118;27.258;2022-11-20T15:43:41;36.37;;;17.67;;
6564;SDS011;3316;44.118;27.258;2022-11-20T15:46:13;37.47;;;18.07;;
6564;SDS011;3316;44.118;27.258;2022-11-20T15:48:42;43.13;;;19.87;;
6564;SDS011;3316;44.118;27.258;2022-11-20T15:54:00;35.13;;;17.47;;
6564;SDS011;3316;44.118;27.258;2022-11-20T15:56:34;34.37;;;16.33;;
6564;SDS011;3316;44.118;27.258;2022-11-20T15:58:59;36.53;;;18.50;;
6564;SDS011;3316;44.118;27.258;2022-11-20T16:01:25;37.83;;;17.67;;
6564;SDS011;3316;44.118;27.258;2022-11-20T16:03:50;37.50;;;18.03;;
6564;SDS011;3316;44.118;27.258;2022-11-20T16:06:16;38.23;;;19.03;;
6564;SDS011;3316;44.118;27.258;2022-11-20T16:08:41;31.73;;;17.00;;
6564;SDS011;3316;44.118;27.258;2022-11-20T16:11:07;39.83;;;17.33;;
6564;SDS011;3316;44.118;27.258;2022-11-20T16:13:39;36.07;;;16.60;;
6564;SDS011;3316;44.118;27.258;2022-11-20T16:16:26;37.63;;;16.93;;
6564;SDS011;3316;44.118;27.258;2022-11-20T16:18:55;47.53;;;22.23;;
6564;SDS011;3316;44.118;27.258;2022-11-20T16:21:21;50.40;;;24.23;;
6564;SDS011;3316;44.118;27.258;2022-11-20T16:23:52;33.77;;;22.10;;
6564;SDS011;3316;44.118;27.258;2022-11-20T16:26:17;47.40;;;24.17;;
6564;SDS011;3316;44.118;27.258;2022-11-20T16:28:44;46.03;;;22.13;;
6564;SDS011;3316;44.118;27.258;2022-11-20T16:31:10;34.40;;;18.93;;
6564;SDS011;3316;44.118;27.258;2022-11-20T16:33:37;34.23;;;18.87;;
6564;SDS011;3316;44.118;27.258;2022-11-20T16:36:13;38.20;;;19.67;;
6564;SDS011;3316;44.118;27.258;2022-11-20T16:38:39;26.23;;;15.70;;
6564;SDS011;3316;44.118;27.258;2022-11-20T16:41:06;31.60;;;20.50;;
6564;SDS011;3316;44.118;27.258;2022-11-20T16:43:42;43.43;;;28.63;;
6564;SDS011;3316;44.118;27.258;2022-11-20T16:46:22;49.77;;;31.93;;
6564;SDS011;3316;44.118;27.258;2022-11-20T16:48:52;50.43;;;29.47;;
6564;SDS011;3316;44.118;27.258;2022-11-20T16:51:18;46.93;;;30.00;;
6564;SDS011;3316;44.118;27.258;2022-11-20T16:53:44;46.17;;;27.47;;
6564;SDS011;3316;44.118;27.258;2022-11-20T16:58:42;49.43;;;27.73;;